Juan de Fuca Strait - east entrance: Past 24 Hour Conditions

 

Halibut Bank - 46146

12:00 AM PST 03 March 2015Buoy position: 49.34N 123.72W
Disclaimer

This table is a summary of hourly weather conditions for the past 24 hours.
Please note that these observations might not always be representative of weather conditions over their associated marine area.

Date / Time
(PST)
Wind(knots) Wave height(m) Wave period(s) Pressure(kPa) Air tempC) Water tempC)
03 March 2015
0:00 NE 6 gust 8 0.2 3.0 102.3 7 8
02 March 2015
23:00 NW 6 gust 6 0.2 3.0 102.3 9 8
22:00 W 2 gust 4 0.3 3.0 102.2 9 8
21:00 ESE 8 gust 10 0.3 3.0 102.1 9 8
20:00 SW 2 gust 4 0.3 3.0 102.1 9 8
19:00 NNE 6 gust 8 0.5 4.0 102.0 9 9
18:00 W 8 gust 12 0.5 4.0 101.9 10 9
17:00 WNW 10 gust 10 0.6 4.0 101.9 9 8
16:00 W 10 gust 12 0.7 4.0 101.9 9 8
15:00 W 14 gust 16 0.6 4.0 101.8 9 8
14:00 WNW 16 gust 19 0.5 4.0 101.8 8 8
13:00 WNW 14 gust 16 0.5 3.0 101.9 7 8
12:00 WNW 12 gust 14 0.4 3.0 101.9 6 8
11:00 WNW 12 gust 14 0.4 3.0 102.0 6 8
10:00 WNW 12 gust 14 0.4 3.0 102.0 6 8
9:00 WNW 12 gust 16 0.4 3.0 102.0 6 8
8:00 NW 10 gust 12 0.5 4.0 102.0 6 8
7:00 NW 12 gust 16 0.4 3.0 101.9 6 8
6:00 NNW 10 gust 14 0.3 3.0 101.9 5 8
5:00 NW 12 gust 16 0.3 3.0 101.8 6 8
4:00 NW 10 gust 12 0.3 3.0 101.8 6 8
3:00 NW 10 gust 12 0.3 3.0 101.8 6 8
2:00 NNW 10 gust 14 0.3 3.0 101.8 6 8
1:00 NNW 8 gust 8 0.3 3.0 101.8 5 8
0:00 NNW 8 gust 12 0.2 3.0 101.8 6 8

Zoom-in to make a selection

Map of Pacific - Georgia Basin marine weather areas Tsawwassen Ferry Terminal Sentry Shoal - 46131 Halibut Bank - 46146 La Perouse Bank - 46206 Discovery Island Esquimalt Harbour Kelp Reefs Malahat Race Rocks Lightstation Saturna Island Sheringham Point University of Victoria Victoria Gonzales Victoria Int'l Airport Ballenas Islands Campbell River Airport Comox Airport Entrance Island Fanny Island Nanaimo Airport Sisters Islets Estevan Point Tofino Airport Grief Point Powell River Airport Sechelt Point Atkinson Sand Heads Lightstation Vancouver Harbour Vancouver Int'l Airport West Vancouver Port Alberni Howe Sound - Pam Rocks Squamish Airport
Legend:
buoy Buoy
land station Land Station

Pacific - Georgia Basin Area

Another Region

What we are doing

Date modified: